Time;durP1;ratioP1;P1;durP2;ratioP2;P2;SDS_P1;SDS_P2;PMS_P1;PMS_P2;Temp;Humidity;BMP_temperature;BMP_pressure;BME280_temperature;BME280_humidity;BME280_pressure;Samples;Min_cycle;Max_cycle;Signal;HPM_P1;HPM_P2
2021/09/18 00:01:10;;;;;;;8.88;7.60;;;;;;;18.22;95.55;98713.02;1677010;84;21489;-83
2021/09/18 00:03:38;;;;;;;14.75;8.35;;;;;;;18.22;95.88;98711.66;1697123;84;20983;-79
2021/09/18 00:06:05;;;;;;;9.55;8.50;;;;;;;18.19;95.96;98715.03;1647057;86;21284;-75
2021/09/18 00:08:32;;;;;;;9.05;7.42;;;;;;;18.22;96.41;98705.44;1668441;84;21726;-70
2021/09/18 00:11:00;;;;;;;10.88;7.28;;;;;;;18.24;96.56;98709.42;1702864;83;20927;-72
2021/09/18 00:13:26;;;;;;;12.35;8.05;;;;;;;18.23;96.52;98712.45;1706109;83;21031;-74
2021/09/18 00:15:54;;;;;;;20.45;10.10;;;;;;;18.24;96.77;98714.06;1724937;82;21106;-74
2021/09/18 00:18:20;;;;;;;11.55;9.53;;;;;;;18.29;97.12;98699.72;1722779;83;22933;-73
2021/09/18 00:20:49;;;;;;;12.78;9.78;;;;;;;18.39;96.93;98695.85;1682617;84;21022;-73
2021/09/18 00:23:16;;;;;;;10.60;7.92;;;;;;;18.38;96.32;98700.25;1699699;83;21091;-73
2021/09/18 00:25:45;;;;;;;12.58;8.43;;;;;;;18.37;96.25;98700.03;1718639;83;21327;-74
2021/09/18 00:28:13;;;;;;;10.75;8.13;;;;;;;18.37;96.10;98700.03;1718578;83;20967;-73
2021/09/18 00:30:40;;;;;;;14.45;9.00;;;;;;;18.30;95.99;98692.36;1718786;83;20968;-72
2021/09/18 00:33:08;;;;;;;9.45;8.53;;;;;;;18.29;96.25;98697.00;1719211;83;20960;-72
2021/09/18 00:35:35;;;;;;;9.63;7.33;;;;;;;18.26;96.03;98695.50;1716112;83;21000;-74
2021/09/18 00:38:02;;;;;;;11.55;9.08;;;;;;;18.17;96.27;98696.08;1673942;84;20995;-73
2021/09/18 00:40:28;;;;;;;8.78;7.85;;;;;;;18.11;96.45;98691.92;1725565;83;21000;-74
2021/09/18 00:42:54;;;;;;;13.13;8.78;;;;;;;18.09;96.99;98686.80;1696016;84;21051;-69
2021/09/18 00:45:23;;;;;;;9.45;8.50;;;;;;;18.12;97.17;98687.53;1725801;83;20995;-72
2021/09/18 00:47:51;;;;;;;15.63;9.98;;;;;;;18.16;97.28;98685.75;1684286;84;20978;-72
2021/09/18 00:50:17;;;;;;;13.93;9.53;;;;;;;18.22;97.47;98683.08;1700399;83;21481;-71
2021/09/18 00:52:44;;;;;;;12.75;10.00;;;;;;;18.29;97.00;98678.50;1721993;83;21025;-72
2021/09/18 00:55:10;;;;;;;10.15;8.95;;;;;;;18.34;96.83;98670.16;1728075;82;21072;-73
2021/09/18 00:57:38;;;;;;;10.55;9.35;;;;;;;18.30;96.27;98674.11;1735167;82;20939;-71
2021/09/18 01:00:09;;;;;;;12.80;8.18;;;;;;;18.32;96.30;98675.71;1736986;82;21574;-72
2021/09/18 01:02:36;;;;;;;10.03;8.95;;;;;;;18.28;95.98;98666.81;1739548;82;21261;-73
2021/09/18 01:05:07;;;;;;;11.83;10.58;;;;;;;18.23;96.11;98662.10;1714385;83;21028;-71
2021/09/18 01:07:38;;;;;;;14.30;9.08;;;;;;;18.18;96.27;98661.72;1736343;82;20939;-69
2021/09/18 01:10:07;;;;;;;8.85;7.67;;;;;;;18.12;96.37;98657.59;1730218;83;20987;-70
2021/09/18 01:12:33;;;;;;;11.93;8.50;;;;;;;18.09;96.68;98663.67;1715036;82;21070;-69
2021/09/18 01:14:59;;;;;;;10.08;8.53;;;;;;;18.12;97.13;98663.59;1739747;82;21560;-69
2021/09/18 01:17:28;;;;;;;14.90;11.10;;;;;;;18.11;97.12;98655.99;1714463;83;21571;-69
2021/09/18 01:19:56;;;;;;;11.57;10.18;;;;;;;18.07;97.21;98656.97;1742224;82;20903;-70
2021/09/18 01:22:23;;;;;;;16.45;9.78;;;;;;;18.06;97.35;98654.00;1742009;82;21535;-75
2021/09/18 01:24:51;;;;;;;9.73;8.25;;;;;;;17.96;97.63;98643.45;1718180;82;21014;-71
2021/09/18 01:27:18;;;;;;;13.45;8.90;;;;;;;17.88;98.35;98643.72;1684866;83;21667;-73
2021/09/18 01:29:45;;;;;;;13.70;10.43;;;;;;;17.83;98.95;98647.42;1738824;82;20935;-73
2021/09/18 01:32:18;;;;;;;10.23;7.62;;;;;;;17.82;99.43;98640.38;1741894;82;21109;-73
2021/09/18 01:34:44;;;;;;;11.43;8.83;;;;;;;17.86;99.79;98637.80;1723291;82;25318;-73
2021/09/18 01:37:11;;;;;;;10.72;8.90;;;;;;;17.83;100.00;98642.53;1679804;85;21009;-74
2021/09/18 01:39:38;;;;;;;11.20;9.15;;;;;;;17.77;100.00;98639.17;1718406;82;21001;-74
2021/09/18 01:42:05;;;;;;;12.73;10.58;;;;;;;17.74;100.00;98636.31;1742275;82;21504;-74
2021/09/18 01:44:33;;;;;;;16.15;10.03;;;;;;;17.73;100.00;98635.51;1737575;82;21523;-73
2021/09/18 01:46:59;;;;;;;10.98;9.88;;;;;;;17.75;100.00;98637.33;1737399;82;21034;-74
2021/09/18 01:49:28;;;;;;;10.53;8.78;;;;;;;17.76;100.00;98636.77;1716332;82;21035;-73
2021/09/18 01:52:07;;;;;;;12.50;11.22;;;;;;;17.78;100.00;98630.46;1737534;82;21022;-75
2021/09/18 01:54:28;;;;;;;15.78;10.88;;;;;;;17.80;100.00;98633.08;1739364;82;21054;-74
2021/09/18 01:56:56;;;;;;;16.15;10.60;;;;;;;17.85;100.00;98632.91;1720662;83;21360;-74
2021/09/18 01:59:23;;;;;;;12.88;11.57;;;;;;;17.92;100.00;98626.98;1704189;84;20913;-74
2021/09/18 02:01:50;;;;;;;13.62;10.23;;;;;;;17.90;100.00;98626.50;1693001;84;21481;-73
2021/09/18 02:04:18;;;;;;;12.88;10.38;;;;;;;17.90;100.00;98622.42;1704545;83;20949;-73
2021/09/18 02:06:45;;;;;;;15.78;12.15;;;;;;;17.88;100.00;98622.52;1704268;83;21715;-75
2021/09/18 02:09:12;;;;;;;13.80;11.97;;;;;;;17.91;100.00;98612.34;1704264;83;21405;-73
2021/09/18 02:11:39;;;;;;;16.23;11.65;;;;;;;17.97;100.00;98612.41;1651109;87;21037;-74
2021/09/18 02:14:07;;;;;;;17.15;11.20;;;;;;;18.06;100.00;98613.19;1663331;85;21036;-73
2021/09/18 02:16:34;;;;;;;11.65;10.25;;;;;;;18.11;100.00;98604.84;1662886;86;21043;-73
2021/09/18 02:19:02;;;;;;;20.02;12.58;;;;;;;18.10;100.00;98604.60;1706712;83;21010;-73
2021/09/18 02:21:29;;;;;;;21.23;12.75;;;;;;;18.04;100.00;98601.81;1704046;83;21143;-73
2021/09/18 02:23:57;;;;;;;15.65;12.07;;;;;;;18.03;100.00;98601.60;1704502;83;20999;-73
2021/09/18 02:26:25;;;;;;;14.45;12.75;;;;;;;18.01;100.00;98595.67;1704308;83;20955;-73
2021/09/18 02:28:51;;;;;;;12.63;10.85;;;;;;;17.99;100.00;98593.83;1694101;84;21079;-72
2021/09/18 02:31:19;;;;;;;12.40;11.10;;;;;;;17.97;100.00;98592.81;1712187;83;21485;-72
2021/09/18 02:33:46;;;;;;;15.60;11.15;;;;;;;18.01;100.00;98590.23;1650039;86;21061;-74
2021/09/18 02:36:12;;;;;;;22.60;13.75;;;;;;;18.03;100.00;98586.64;1678500;84;21036;-73
2021/09/18 02:38:40;;;;;;;15.35;12.80;;;;;;;18.03;100.00;98587.44;1697049;84;20948;-74
2021/09/18 02:41:08;;;;;;;16.97;12.43;;;;;;;18.09;100.00;98583.39;1710782;83;21015;-74
2021/09/18 02:43:34;;;;;;;12.85;10.68;;;;;;;18.11;100.00;98583.08;1724798;83;21080;-76
2021/09/18 02:46:02;;;;;;;17.17;10.70;;;;;;;18.13;100.00;98580.84;1696737;84;20969;-73
2021/09/18 02:48:28;;;;;;;16.55;12.53;;;;;;;18.12;100.00;98575.16;1696472;84;21568;-73
2021/09/18 02:50:55;;;;;;;12.70;10.70;;;;;;;18.11;100.00;98580.35;1676510;84;21553;-74
2021/09/18 02:53:22;;;;;;;15.18;11.03;;;;;;;18.11;100.00;98582.52;1706967;83;20991;-74
2021/09/18 02:55:48;;;;;;;15.83;13.45;;;;;;;18.10;100.00;98576.03;1725082;82;21019;-74
2021/09/18 02:58:15;;;;;;;14.45;11.60;;;;;;;18.09;100.00;98571.70;1709034;82;21036;-72
2021/09/18 03:00:42;;;;;;;11.97;10.65;;;;;;;18.14;100.00;98578.33;1709000;82;21566;-73
2021/09/18 03:03:09;;;;;;;14.43;11.48;;;;;;;18.16;100.00;98578.26;1709151;81;20947;-73
2021/09/18 03:05:38;;;;;;;17.15;12.88;;;;;;;18.19;100.00;98572.70;1732396;81;21014;-76
2021/09/18 03:08:04;;;;;;;12.85;10.32;;;;;;;18.30;100.00;98576.67;1735246;82;21002;-74
2021/09/18 03:10:31;;;;;;;15.75;12.90;;;;;;;18.34;100.00;98581.69;1740960;82;21097;-74
2021/09/18 03:12:57;;;;;;;15.25;11.53;;;;;;;18.30;100.00;98582.92;1718585;82;21018;-76
2021/09/18 03:15:25;;;;;;;11.88;10.20;;;;;;;18.29;100.00;98576.43;1740932;82;21483;-74
2021/09/18 03:17:52;;;;;;;13.58;9.33;;;;;;;18.26;100.00;98572.45;1744266;82;21034;-73
2021/09/18 03:20:20;;;;;;;14.63;11.45;;;;;;;18.23;100.00;98573.64;1744404;82;21515;-74
2021/09/18 03:22:48;;;;;;;15.93;10.98;;;;;;;18.14;100.00;98573.69;1744613;82;20969;-73
2021/09/18 03:25:15;;;;;;;13.20;10.38;;;;;;;18.10;100.00;98575.47;1741535;82;21026;-73
2021/09/18 03:27:41;;;;;;;19.57;13.25;;;;;;;18.02;100.00;98576.31;1732062;82;20975;-74
2021/09/18 03:30:09;;;;;;;13.38;11.95;;;;;;;18.04;100.00;98570.52;1732014;82;20983;-74
2021/09/18 03:32:37;;;;;;;19.90;12.50;;;;;;;18.08;100.00;98563.33;1732530;82;20928;-75
2021/09/18 03:35:06;;;;;;;22.55;11.73;;;;;;;18.12;100.00;98565.63;1713986;82;21901;-73
2021/09/18 03:37:34;;;;;;;15.25;11.05;;;;;;;18.10;100.00;98557.78;1709041;82;20996;-73
2021/09/18 03:40:05;;;;;;;11.43;10.03;;;;;;;18.14;100.00;98568.25;1709152;81;20983;-73
2021/09/18 03:42:31;;;;;;;13.08;11.48;;;;;;;18.17;100.00;98564.09;1739895;82;21046;-74
2021/09/18 03:44:59;;;;;;;16.23;11.78;;;;;;;18.17;100.00;98555.36;1740048;82;21550;-74
2021/09/18 03:47:26;;;;;;;14.55;11.35;;;;;;;18.18;100.00;98562.38;1700588;83;21300;-74
2021/09/18 03:49:54;;;;;;;12.58;11.28;;;;;;;18.22;100.00;98557.10;1728649;83;21536;-73
2021/09/18 03:52:25;;;;;;;11.88;10.68;;;;;;;18.26;100.00;98553.95;1728833;83;21030;-73
2021/09/18 03:54:50;;;;;;;16.12;13.13;;;;;;;18.27;100.00;98553.61;1723493;83;21074;-74
2021/09/18 03:57:17;;;;;;;14.78;11.80;;;;;;;18.16;100.00;98550.24;1735439;82;21062;-74
2021/09/18 03:59:44;;;;;;;13.18;11.00;;;;;;;18.14;100.00;98553.84;1739659;82;21961;-75
2021/09/18 04:02:12;;;;;;;14.65;12.82;;;;;;;18.14;100.00;98543.75;1739910;82;21010;-73
2021/09/18 04:04:38;;;;;;;17.80;13.45;;;;;;;18.17;100.00;98544.48;1739682;82;21556;-73
2021/09/18 04:07:06;;;;;;;14.38;11.28;;;;;;;18.15;100.00;98540.47;1739742;82;21062;-73
2021/09/18 04:09:33;;;;;;;12.05;10.50;;;;;;;18.18;100.00;98545.25;1739461;82;21090;-74
2021/09/18 04:11:59;;;;;;;13.00;11.70;;;;;;;18.20;100.00;98538.93;1731836;82;23336;-73
2021/09/18 04:14:28;;;;;;;21.90;13.15;;;;;;;18.20;100.00;98541.09;1731354;82;21019;-72
2021/09/18 04:16:54;;;;;;;15.75;10.65;;;;;;;18.25;100.00;98540.91;1736598;82;21040;-73
2021/09/18 04:19:21;;;;;;;13.60;12.20;;;;;;;18.30;100.00;98534.48;1730848;82;20952;-74
2021/09/18 04:21:47;;;;;;;14.38;11.85;;;;;;;18.32;100.00;98534.16;1709662;83;21027;-74
2021/09/18 04:24:15;;;;;;;13.90;12.58;;;;;;;18.28;100.00;98532.08;1730196;82;21042;-72
2021/09/18 04:26:42;;;;;;;12.37;11.28;;;;;;;18.32;100.00;98530.08;1730284;82;21533;-72
2021/09/18 04:29:10;;;;;;;17.02;11.50;;;;;;;18.35;100.00;98527.48;1713860;82;20979;-73
2021/09/18 04:31:36;;;;;;;16.27;12.68;;;;;;;18.37;100.00;98532.02;1738075;82;21054;-73
2021/09/18 04:34:03;;;;;;;15.35;12.82;;;;;;;18.39;100.00;98532.50;1718377;82;21057;-73
2021/09/18 04:36:29;;;;;;;16.70;10.75;;;;;;;18.43;100.00;98532.08;1736623;82;21105;-74
2021/09/18 04:38:57;;;;;;;14.75;12.07;;;;;;;18.47;100.00;98537.66;1739738;82;21079;-74
2021/09/18 04:41:26;;;;;;;17.45;12.70;;;;;;;18.47;100.00;98537.09;1739785;82;21027;-72
2021/09/18 04:43:55;;;;;;;12.45;11.15;;;;;;;18.51;100.00;98532.58;1739860;82;21575;-73
2021/09/18 04:46:24;;;;;;;13.90;12.50;;;;;;;18.60;100.00;98533.38;1733426;82;26020;-74
2021/09/18 04:48:52;;;;;;;15.98;12.25;;;;;;;18.64;100.00;98532.14;1739594;82;21045;-73
2021/09/18 04:51:18;;;;;;;13.35;11.90;;;;;;;18.66;100.00;98534.76;1739251;82;20978;-73
2021/09/18 04:53:46;;;;;;;16.85;12.90;;;;;;;18.59;100.00;98529.61;1739808;82;21011;-74
2021/09/18 04:56:12;;;;;;;13.78;11.78;;;;;;;18.51;100.00;98535.89;1726567;82;21030;-72
2021/09/18 04:58:40;;;;;;;11.25;10.13;;;;;;;18.51;100.00;98527.12;1712109;83;21481;-73
2021/09/18 05:01:07;;;;;;;16.40;12.55;;;;;;;18.54;100.00;98524.36;1713731;83;21370;-72
2021/09/18 05:03:33;;;;;;;20.08;13.15;;;;;;;18.52;100.00;98523.28;1703697;83;21055;-72
2021/09/18 05:05:59;;;;;;;15.80;13.25;;;;;;;18.50;100.00;98524.20;1726808;83;21000;-74
2021/09/18 05:08:26;;;;;;;19.23;12.23;;;;;;;18.48;100.00;98519.63;1726699;83;21051;-73
2021/09/18 05:10:54;;;;;;;16.17;12.98;;;;;;;18.43;100.00;98525.83;1722259;83;20992;-73
2021/09/18 05:13:22;;;;;;;13.35;10.72;;;;;;;18.40;100.00;98516.97;1712121;83;20925;-74
2021/09/18 05:15:49;;;;;;;14.55;12.03;;;;;;;18.46;100.00;98521.11;1713775;83;21820;-73
2021/09/18 05:18:15;;;;;;;19.12;13.05;;;;;;;18.50;100.00;98521.48;1726435;83;21098;-73
2021/09/18 05:20:43;;;;;;;17.00;12.75;;;;;;;18.54;100.00;98523.00;1701196;83;20966;-73
2021/09/18 05:23:11;;;;;;;14.58;12.58;;;;;;;18.61;100.00;98521.89;1675570;84;21027;-74
2021/09/18 05:25:39;;;;;;;16.07;11.38;;;;;;;18.66;100.00;98519.77;1699699;84;21018;-72
2021/09/18 05:28:05;;;;;;;19.73;12.68;;;;;;;18.67;100.00;98519.22;1670030;86;21477;-73
2021/09/18 05:30:34;;;;;;;20.92;13.32;;;;;;;18.66;100.00;98513.53;1684286;85;21009;-75
2021/09/18 05:33:02;;;;;;;15.43;11.53;;;;;;;18.69;100.00;98512.89;1725261;83;21477;-72
2021/09/18 05:35:30;;;;;;;15.98;13.13;;;;;;;18.73;100.00;98517.34;1712102;83;20972;-73
2021/09/18 05:37:57;;;;;;;21.12;13.55;;;;;;;18.78;100.00;98510.89;1696505;83;21204;-71
2021/09/18 05:40:27;;;;;;;17.37;13.70;;;;;;;18.84;100.00;98506.05;1721309;83;20963;-72
2021/09/18 05:42:54;;;;;;;25.62;12.93;;;;;;;18.89;100.00;98512.66;1703703;83;21596;-73
2021/09/18 05:45:22;;;;;;;17.50;13.95;;;;;;;18.95;100.00;98508.02;1703657;83;21071;-74
2021/09/18 05:47:50;;;;;;;19.77;15.72;;;;;;;19.02;100.00;98515.66;1719102;83;20941;-74
2021/09/18 05:50:17;;;;;;;25.32;14.60;;;;;;;19.10;100.00;98516.14;1717062;83;21774;-73
2021/09/18 05:52:44;;;;;;;16.75;15.15;;;;;;;19.13;100.00;98512.77;1726748;83;21520;-74
2021/09/18 05:55:10;;;;;;;20.50;14.78;;;;;;;19.14;100.00;98511.05;1726671;83;21000;-74
2021/09/18 05:57:37;;;;;;;18.98;15.93;;;;;;;19.16;100.00;98507.44;1726585;83;21500;-74
2021/09/18 06:00:06;;;;;;;17.17;15.08;;;;;;;19.23;100.00;98508.83;1696700;84;21021;-73
2021/09/18 06:02:32;;;;;;;20.70;16.20;;;;;;;19.25;100.00;98512.80;1715823;83;21175;-72
2021/09/18 06:05:01;;;;;;;19.07;17.32;;;;;;;19.30;100.00;98518.05;1717208;83;21094;-73
2021/09/18 06:07:27;;;;;;;20.62;15.38;;;;;;;19.29;100.00;98512.36;1726545;83;21031;-71
2021/09/18 06:09:54;;;;;;;16.37;13.38;;;;;;;19.30;100.00;98519.97;1718615;83;21535;-72
2021/09/18 06:12:20;;;;;;;15.90;14.23;;;;;;;19.32;100.00;98518.52;1724656;82;21086;-72
2021/09/18 06:14:48;;;;;;;22.95;16.93;;;;;;;19.36;100.00;98517.28;1728662;83;20979;-73
2021/09/18 06:17:19;;;;;;;21.07;17.55;;;;;;;19.36;100.00;98511.82;1728824;83;20979;-74
2021/09/18 06:19:47;;;;;;;25.80;17.32;;;;;;;19.30;100.00;98511.23;1727080;83;20964;-73
2021/09/18 06:22:13;;;;;;;21.35;15.85;;;;;;;19.23;100.00;98510.20;1726524;83;21152;-73
2021/09/18 06:24:42;;;;;;;19.65;15.88;;;;;;;19.24;100.00;98514.48;1726705;83;20987;-72
2021/09/18 06:27:10;;;;;;;21.73;18.60;;;;;;;19.25;100.00;98517.45;1726698;83;21444;-72
2021/09/18 06:29:37;;;;;;;17.37;15.68;;;;;;;19.25;100.00;98514.16;1726961;83;20943;-72
2021/09/18 06:32:07;;;;;;;20.37;18.12;;;;;;;19.31;100.00;98518.84;1728968;83;21019;-73
2021/09/18 06:34:35;;;;;;;26.50;21.85;;;;;;;19.32;100.00;98517.16;1727624;83;21598;-73
2021/09/18 06:37:03;;;;;;;29.72;23.25;;;;;;;19.32;100.00;98517.72;1727822;83;20984;-74
2021/09/18 06:39:33;;;;;;;28.12;22.32;;;;;;;19.28;100.00;98522.25;1728697;83;21110;-72
2021/09/18 06:42:00;;;;;;;27.02;24.12;;;;;;;19.26;100.00;98516.33;1716839;83;21054;-74
2021/09/18 06:44:27;;;;;;;28.25;23.70;;;;;;;19.27;100.00;98519.30;1698136;83;21500;-73
2021/09/18 06:46:53;;;;;;;25.45;22.75;;;;;;;19.27;99.39;98520.09;1711985;83;21046;-71
2021/09/18 06:49:20;;;;;;;32.65;29.18;;;;;;;19.30;99.03;98524.86;1713632;83;20988;-73
2021/09/18 06:51:46;;;;;;;39.80;34.15;;;;;;;19.27;98.42;98517.36;1720836;83;21556;-73
2021/09/18 06:54:12;;;;;;;40.30;34.50;;;;;;;19.26;98.06;98518.49;1714422;83;21035;-74
2021/09/18 06:56:40;;;;;;;32.53;29.32;;;;;;;19.27;97.80;98518.73;1717706;83;21007;-74
2021/09/18 06:59:07;;;;;;;32.23;27.45;;;;;;;19.26;97.85;98515.77;1729131;83;21018;-72
2021/09/18 07:01:33;;;;;;;32.30;24.60;;;;;;;19.24;97.58;98518.02;1728935;83;21050;-72
2021/09/18 07:04:00;;;;;;;24.47;21.87;;;;;;;19.22;97.47;98516.21;1727529;83;21113;-74
2021/09/18 07:06:27;;;;;;;27.22;23.83;;;;;;;19.21;97.45;98514.61;1728867;83;21098;-73
2021/09/18 07:08:54;;;;;;;28.32;22.67;;;;;;;19.21;97.39;98514.61;1728933;83;21180;-72
2021/09/18 07:11:22;;;;;;;24.32;21.90;;;;;;;19.24;97.02;98514.48;1726860;83;21014;-71
2021/09/18 07:13:49;;;;;;;30.52;23.62;;;;;;;19.23;96.73;98517.01;1696528;83;21113;-73
2021/09/18 07:16:15;;;;;;;28.20;20.68;;;;;;;19.21;96.66;98515.97;1727250;83;21199;-72
2021/09/18 07:18:43;;;;;;;23.30;20.88;;;;;;;19.22;96.41;98521.66;1726366;83;20963;-72
2021/09/18 07:21:10;;;;;;;22.35;20.00;;;;;;;19.23;95.95;98517.01;1727527;83;21014;-71
2021/09/18 07:23:36;;;;;;;23.02;20.12;;;;;;;19.23;95.82;98516.45;1728028;83;21031;-69
2021/09/18 07:26:03;;;;;;;22.87;20.02;;;;;;;19.29;95.73;98515.65;1685690;84;21591;-73
2021/09/18 07:28:29;;;;;;;27.73;20.43;;;;;;;19.34;95.30;98515.44;1699847;84;21815;-72
2021/09/18 07:30:56;;;;;;;26.95;19.82;;;;;;;19.36;94.99;98506.38;1705313;83;21026;-71
2021/09/18 07:33:22;;;;;;;24.75;18.15;;;;;;;19.39;94.51;98513.30;1657829;85;21034;-72
2021/09/18 07:35:49;;;;;;;19.37;17.45;;;;;;;19.42;94.37;98511.84;1703935;83;21052;-73
2021/09/18 07:38:15;;;;;;;19.37;17.37;;;;;;;19.48;93.84;98518.12;1728703;83;21055;-72
2021/09/18 07:40:42;;;;;;;17.12;15.45;;;;;;;19.50;92.89;98512.34;1651799;85;21213;-72
2021/09/18 07:43:09;;;;;;;18.37;16.35;;;;;;;19.53;92.77;98517.12;1739529;82;20958;-70
2021/09/18 07:45:35;;;;;;;22.25;17.85;;;;;;;19.54;92.35;98515.98;1743736;82;21043;-71
2021/09/18 07:48:01;;;;;;;19.00;17.02;;;;;;;19.57;92.11;98516.67;1743340;82;21007;-73
2021/09/18 07:50:28;;;;;;;17.92;16.23;;;;;;;19.57;91.58;98517.47;1744437;82;21574;-72
2021/09/18 07:52:56;;;;;;;19.45;17.25;;;;;;;19.57;90.73;98520.20;1718870;82;21404;-73
2021/09/18 07:55:26;;;;;;;19.45;15.63;;;;;;;19.56;90.24;98505.55;1715462;82;21080;-75
2021/09/18 07:57:52;;;;;;;15.85;14.35;;;;;;;19.58;90.36;98521.80;1734074;82;21039;-72
2021/09/18 08:00:20;;;;;;;20.68;16.10;;;;;;;19.60;89.87;98511.92;1735898;82;20979;-72
2021/09/18 08:02:47;;;;;;;17.82;15.88;;;;;;;19.64;89.79;98511.47;1737818;82;21008;-73
2021/09/18 08:05:14;;;;;;;23.85;17.67;;;;;;;19.68;89.36;98505.56;1737318;82;21129;-72
2021/09/18 08:07:42;;;;;;;20.02;16.62;;;;;;;19.70;89.18;98507.96;1737800;82;20967;-73
2021/09/18 08:10:13;;;;;;;16.62;14.95;;;;;;;19.73;88.70;98504.55;1738202;82;21476;-73
2021/09/18 08:12:38;;;;;;;23.57;18.37;;;;;;;19.78;88.53;98507.05;1737703;82;21059;-74
2021/09/18 08:15:06;;;;;;;19.27;16.15;;;;;;;19.78;87.56;98506.49;1742022;82;20962;-76
2021/09/18 08:17:33;;;;;;;21.25;17.62;;;;;;;19.80;87.20;98497.41;1717564;82;21049;-73
2021/09/18 08:19:59;;;;;;;16.97;15.28;;;;;;;19.85;86.90;98507.30;1741303;82;20939;-72
2021/09/18 08:22:25;;;;;;;20.80;17.77;;;;;;;19.86;85.83;98502.05;1741838;82;21487;-72
2021/09/18 08:24:54;;;;;;;19.50;16.42;;;;;;;19.87;85.57;98507.18;1742189;82;20982;-72
2021/09/18 08:27:21;;;;;;;19.67;15.93;;;;;;;19.90;84.99;98506.49;1718777;82;21583;-72
2021/09/18 08:29:47;;;;;;;16.25;14.65;;;;;;;19.92;84.53;98509.69;1718304;82;21026;-71
2021/09/18 08:32:14;;;;;;;15.80;14.20;;;;;;;19.92;84.53;98509.69;1718622;82;21535;-72
2021/09/18 08:34:41;;;;;;;16.12;14.35;;;;;;;19.91;84.14;98514.11;1718798;82;21035;-73
2021/09/18 08:37:07;;;;;;;18.65;15.48;;;;;;;19.91;84.14;98508.66;1715087;82;21015;-75
2021/09/18 08:39:35;;;;;;;15.10;13.53;;;;;;;19.92;83.90;98511.05;1735623;82;21086;-72
2021/09/18 08:42:03;;;;;;;16.30;14.63;;;;;;;19.91;83.64;98509.45;1714676;82;21157;-71
2021/09/18 08:44:31;;;;;;;15.63;13.25;;;;;;;19.90;83.76;98524.23;1741105;82;20954;-74
2021/09/18 08:46:58;;;;;;;17.73;11.90;;;;;;;19.90;83.58;98518.00;1716350;82;21052;-75
2021/09/18 08:49:27;;;;;;;20.80;13.25;;;;;;;20.04;83.33;98532.12;1741052;82;20994;-72
2021/09/18 08:51:54;;;;;;;13.80;11.65;;;;;;;20.04;83.33;98532.12;1737486;82;21078;-73
2021/09/18 08:54:22;;;;;;;16.37;12.68;;;;;;;20.07;82.47;98520.50;1737491;82;21157;-72
2021/09/18 08:56:50;;;;;;;12.80;9.98;;;;;;;20.03;81.83;98534.05;1737790;82;21485;-73
2021/09/18 08:59:17;;;;;;;12.33;9.55;;;;;;;20.03;81.65;98540.07;1740475;82;20947;-72
2021/09/18 09:01:43;;;;;;;16.50;9.45;;;;;;;19.96;81.08;98533.00;1705769;83;21590;-72
2021/09/18 09:04:10;;;;;;;13.70;9.43;;;;;;;19.91;81.02;98559.94;1669368;85;21527;-72
2021/09/18 09:06:47;;;;;;;15.88;9.55;;;;;;;19.90;80.86;98536.52;1678905;85;21404;-72
2021/09/18 09:09:14;;;;;;;10.35;9.28;;;;;;;19.96;80.64;98544.72;1699585;83;21090;-72
2021/09/18 09:11:50;;;;;;;9.78;8.73;;;;;;;19.92;80.07;98536.18;1688985;83;21484;-73
2021/09/18 09:14:16;;;;;;;10.85;8.13;;;;;;;19.86;80.13;98532.88;1687727;83;21610;-72
2021/09/18 09:17:02;;;;;;;8.65;7.60;;;;;;;19.81;80.29;98530.92;1685618;83;20999;-72
2021/09/18 09:19:39;;;;;;;10.30;9.18;;;;;;;19.80;80.47;98535.61;1685791;83;21179;-73
2021/09/18 09:22:07;;;;;;;11.05;8.68;;;;;;;19.80;80.08;98531.52;1698777;83;20963;-72
2021/09/18 09:24:35;;;;;;;9.28;8.28;;;;;;;19.84;80.32;98533.80;1713536;83;20974;-72
2021/09/18 09:27:13;;;;;;;11.48;10.48;;;;;;;19.88;79.93;98532.55;1724308;83;21494;-72
2021/09/18 09:29:57;;;;;;;11.08;9.93;;;;;;;19.91;79.89;98536.74;1715306;83;21003;-72
2021/09/18 09:32:35;;;;;;;10.08;9.03;;;;;;;19.95;79.75;98540.38;1697476;83;21137;-72
2021/09/18 09:35:13;;;;;;;9.40;6.58;;;;;;;20.02;79.61;98541.20;1721861;83;20979;-72
2021/09/18 09:37:55;;;;;;;7.75;6.95;;;;;;;20.14;78.58;98552.70;1727373;82;21027;-73
2021/09/18 09:40:42;;;;;;;6.60;6.00;;;;;;;20.15;77.52;98535.97;1726753;83;21047;-72
2021/09/18 09:43:12;;;;;;;6.85;6.28;;;;;;;20.12;76.89;98546.78;1685154;85;21111;-72
2021/09/18 09:45:39;;;;;;;7.33;6.15;;;;;;;20.08;77.01;98544.51;1709965;83;22705;-72
2021/09/18 09:48:12;;;;;;;5.05;4.55;;;;;;;20.05;76.81;98559.61;1722967;83;22114;-73
2021/09/18 09:50:41;;;;;;;4.80;4.42;;;;;;;20.06;76.33;98550.30;1687550;83;21599;-72
2021/09/18 09:53:29;;;;;;;4.42;4.12;;;;;;;20.03;76.05;98553.16;1712266;83;21012;-71
2021/09/18 09:55:55;;;;;;;4.20;3.80;;;;;;;19.96;75.61;98562.45;1727045;83;21083;-72
2021/09/18 09:58:22;;;;;;;3.92;3.52;;;;;;;19.93;75.86;98567.23;1692146;83;22401;-72
2021/09/18 10:00:53;;;;;;;4.83;4.42;;;;;;;19.93;75.91;98572.69;1687751;83;21105;-72
2021/09/18 10:03:24;;;;;;;3.62;3.33;;;;;;;19.93;75.77;98570.53;1672325;85;20959;-72
2021/09/18 10:05:53;;;;;;;3.62;3.33;;;;;;;19.89;76.04;98571.78;1690108;83;20999;-72
2021/09/18 10:08:22;;;;;;;3.85;3.55;;;;;;;19.83;76.52;98564.14;1715525;83;21007;-71
2021/09/18 10:10:50;;;;;;;5.28;4.78;;;;;;;19.82;76.79;98565.27;1728280;83;21147;-71
2021/09/18 10:13:20;;;;;;;4.22;3.15;;;;;;;19.84;76.81;98561.08;1717018;83;21248;-72
2021/09/18 10:15:47;;;;;;;4.50;4.20;;;;;;;19.78;77.41;98561.63;1678238;84;21035;-72
2021/09/18 10:18:19;;;;;;;3.52;3.22;;;;;;;19.67;78.08;98570.80;1672852;84;21129;-70
2021/09/18 10:23:23;;;;;;;4.00;3.43;;;;;;;19.53;80.12;98594.28;1718975;83;22199;-73
2021/09/18 10:25:56;;;;;;;6.60;3.05;;;;;;;19.47;80.55;98595.62;1677538;83;20962;-73
2021/09/18 10:28:29;;;;;;;5.40;3.40;;;;;;;19.34;80.44;98595.31;1723129;83;21154;-72
2021/09/18 10:31:00;;;;;;;3.30;2.75;;;;;;;19.23;80.63;98592.78;1718639;83;21003;-73
2021/09/18 10:33:44;;;;;;;3.52;2.65;;;;;;;19.08;81.06;98588.72;1683760;83;21315;-71
2021/09/18 10:36:15;;;;;;;5.05;2.95;;;;;;;18.92;82.11;98593.72;1727637;83;21053;-69
2021/09/18 10:38:44;;;;;;;3.65;3.10;;;;;;;18.92;82.11;98593.72;1728473;83;21373;-69
2021/09/18 10:41:24;;;;;;;3.47;2.83;;;;;;;18.92;82.41;98599.17;1719230;82;21014;-70
2021/09/18 10:43:55;;;;;;;2.90;2.65;;;;;;;18.89;82.58;98592.47;1729085;82;20966;-69
2021/09/18 10:46:52;;;;;;;;;;;;;;;18.92;82.43;98589.07;1695980;83;21639;-70
2021/09/18 10:49:45;;;;;;;3.83;2.85;;;;;;;19.01;82.53;98586.28;1713777;83;21028;-71
2021/09/18 10:52:29;;;;;;;7.53;3.05;;;;;;;19.14;81.29;98580.55;1704324;83;21060;-68
2021/09/18 10:55:10;;;;;;;4.47;3.33;;;;;;;19.25;80.78;98582.32;1728505;83;20991;-70
2021/09/18 10:57:45;;;;;;;4.17;3.77;;;;;;;19.35;79.90;98595.55;1710101;83;21051;-76
2021/09/18 11:00:27;;;;;;;5.05;2.83;;;;;;;19.43;78.81;98592.50;1704306;83;21442;-74
2021/09/18 11:02:57;;;;;;;6.33;2.43;;;;;;;19.49;77.48;98594.73;1694793;84;21832;-72
2021/09/18 11:05:38;;;;;;;5.70;2.33;;;;;;;19.48;77.04;98586.88;1690348;84;21174;-70
2021/09/18 11:08:19;;;;;;;3.20;2.80;;;;;;;19.46;77.12;98585.06;1724929;83;20971;-70
2021/09/18 11:11:03;;;;;;;2.98;2.12;;;;;;;19.56;76.00;98601.02;1709628;83;21019;-71
2021/09/18 11:13:37;;;;;;;2.00;1.77;;;;;;;19.57;74.84;98595.20;1720248;83;21525;-72
2021/09/18 11:16:24;;;;;;;2.98;2.30;;;;;;;19.57;74.84;98595.20;1722522;83;21000;-73
2021/09/18 11:18:55;;;;;;;5.17;2.08;;;;;;;19.54;74.37;98602.70;1723868;83;21024;-73
2021/09/18 11:21:27;;;;;;;5.17;2.60;;;;;;;19.54;74.37;98602.70;1719829;83;20989;-74
2021/09/18 11:24:21;;;;;;;4.53;3.42;;;;;;;19.50;74.06;98605.08;1698145;83;21032;-74
2021/09/18 11:26:58;;;;;;;5.35;2.60;;;;;;;19.45;74.59;98609.37;1700203;84;21054;-71
2021/09/18 11:29:42;;;;;;;10.40;4.33;;;;;;;19.41;74.73;98607.85;1709178;83;21055;-71